Goetsenhoven, Belgium

5:12 AM CEST on April 02, 2015 (GMT +0200)
IRGIONWA10 | | Change Station
CLOSE
Current Station
Personal Weather Station
Location: Jodoigne, ReGION WALLONNE
Elevation: 256 ft
Nearby Weather Stations

Elev 256 ft 50.73 °N, 4.87 °E | Updated 3 minutes ago

Light Rain
Light Rain
43.5 °F
Feels Like 41 °F
N
5.0
Wind Variable Wind from WSW
Gusts 6.0 mph

Today
High -- | Low -- °F
--% Chance of Precip.
Yesterday
High -- | Low -- °F
Precip. -- in
7:14 AM 8:13 PM
Waxing Gibbous, 95% visible
Pressure 29.89 in
Visibility 5.6 miles
Clouds Scattered Clouds 600 ft
Mostly Cloudy 900 ft
Windchill 41 °F
Dew Point 42 °F
Humidity 95%
Rainfall 0.07 in
Snow Depth Not available.
UV 0.0 out of 12
Pollen Not available.
Air Quality Not available.
Flu Activity Not available.
METAR EBBR 020250Z 24010KT 9000 -RA SCT006 BKN009 06/05 Q1012 TEMPO 4000 RA

More Conditions Fewer Conditions

Pressure 29.89 in
Visibility 5.6 miles
Clouds Scattered Clouds 600 ft
Mostly Cloudy 900 ft
Windchill 41 °F
Dew Point 42 °F
Humidity 95%
Rainfall 0.07 in
Snow Depth Not available.
UV 0.0 out of 12
Pollen Not available.
Air Quality Not available.
Flu Activity Not available.
METAR EBBR 020250Z 24010KT 9000 -RA SCT006 BKN009 06/05 Q1012 TEMPO 4000 RA

More Conditions Fewer Conditions

10-Day Weather Forecast

Almanac

Astronomy

Apr. 02, 2015 Rise Set
Actual Time
Civil Twilight
Nautical Twilight
Astronomical Twilight
Moon
Length of Visible Light
Length of Day
Tomorrow will be .
, % of the Moon is Illuminated

Today's Extremes

Country Highs Country Lows

Community

WunderPhotos

Upload Photos

1,810,179 photos uploaded!

WunderBlogs® & News

Nearby

Air Quality

  Air Quality AQ Index Pollutant
Not available.

Snow Depth

Station Depth Elevation

Earthquake Activity

City Distance Mag. Time & Date
Minimum magnitude displayed is 2.5.

Coastal Water Temperatures

Place Temperature

Stations

Nearby Weather Stations

Station Location Temp. Windchill Dew Point Humidity Wind Precip. Elev Updated Type